»·PEaware :: N789LV KONT-KLAS

N789LV :: KONT-KLAS

FLIGHT INFORMATION

Flight Status: Arrived
Operator: Privately registered:
United States
More flights under this callsign
Pilot: Sean L. (1709)
Aircraft: BOEING 747-400 (WINGLETS)
(B744)
More flights by this aircraft type
Origin: KONT Ontario Intl
United States
Destination: KLAS McCarran Intl
United States
More flights between these airports :: More routes between these airports
Route: POM9 DAG CLARR2
File this flight plan on PilotEdge
Remarks: (LIVE WX)
Altitude:
(Current/Filed)
230ft
Speed:
(Current/Filed)
235kts
Departed: 20-Mar-17 08:23 PM
Arrived: 20-Mar-17 08:58 PM
Distance/Time
Traveled:
171nm/0:35
Distance/Time
To Go:
Arrived

Flight Plot

Page will automatically refresh every two minutes.

Flight plan parsing failed; only flown route is shown


Map Options




Map Legend


Flown Route
Filed Route
Departure Airport
Arrival Airport
Navaid (VOR, NDB)
Fix

Horizontal Profiles

Position Reports

Time Latitude Longitude Heading Altitude Ground
Speed
20-Mar-17 20:01 34.050700 -117.577428 90 956ft 0kts
20-Mar-17 20:02 34.050700 -117.577428 90 956ft 0kts
20-Mar-17 20:03 34.050700 -117.577428 90 957ft 0kts
20-Mar-17 20:04 34.050700 -117.577428 90 957ft 0kts
20-Mar-17 20:05 34.050700 -117.577428 90 957ft 0kts
20-Mar-17 20:06 34.050700 -117.577428 90 957ft 0kts
20-Mar-17 20:07 34.050700 -117.577428 90 957ft 0kts
20-Mar-17 20:08 34.050700 -117.577428 90 957ft 0kts
20-Mar-17 20:09 34.050700 -117.577428 90 957ft 0kts
20-Mar-17 20:10 34.050700 -117.577428 90 957ft 0kts
20-Mar-17 20:11 34.050700 -117.577428 90 957ft 0kts
20-Mar-17 20:12 34.050700 -117.577428 90 957ft 0kts
20-Mar-17 20:13 34.050700 -117.577428 90 957ft 0kts
20-Mar-17 20:14 34.050700 -117.577428 90 957ft 0kts
20-Mar-17 20:15 34.050700 -117.577428 89 957ft 0kts
20-Mar-17 20:16 34.050700 -117.577427 88 957ft 0kts
20-Mar-17 20:17 34.050700 -117.577426 88 957ft 0kts
20-Mar-17 20:18 34.050700 -117.577425 88 957ft 0kts
20-Mar-17 20:19 34.050700 -117.577424 88 957ft 0kts
20-Mar-17 20:20 34.050700 -117.577422 88 957ft 0kts
20-Mar-17 20:21 34.051891 -117.578268 357 957ft 14kts
20-Mar-17 20:22 34.053710 -117.582697 358 957ft 11kts
20-Mar-17 20:23 34.054286 -117.582709 358 957ft 9kts
20-Mar-17 20:24 34.055010 -117.609191 269 1593ft 188kts
20-Mar-17 20:25 34.055531 -117.675832 267 4772ft 213kts
20-Mar-17 20:26 34.058226 -117.754200 285 6646ft 258kts
20-Mar-17 20:27 34.106822 -117.823820 316 9618ft 289kts
20-Mar-17 20:28 34.173096 -117.896966 312 11712ft 371kts
20-Mar-17 20:29 34.254521 -117.980451 334 15675ft 407kts
20-Mar-17 20:30 34.364918 -117.951281 43 19222ft 443kts
20-Mar-17 20:31 34.404491 -117.812527 82 22293ft 457kts
20-Mar-17 20:32 34.468565 -117.677482 56 23151ft 469kts
20-Mar-17 20:33 34.534622 -117.540927 62 23140ft 468kts
20-Mar-17 20:34 34.597017 -117.402521 62 23140ft 468kts
20-Mar-17 20:35 34.659108 -117.264191 62 23134ft 467kts
20-Mar-17 20:36 34.720912 -117.125566 62 23121ft 467kts
20-Mar-17 20:37 34.782541 -116.986738 62 23084ft 467kts
20-Mar-17 20:38 34.844472 -116.847422 62 23050ft 467kts
20-Mar-17 20:39 34.905512 -116.708352 62 23041ft 466kts
20-Mar-17 20:40 34.969534 -116.571406 52 23049ft 470kts
20-Mar-17 20:41 35.063878 -116.452008 45 23060ft 498kts
20-Mar-17 20:42 35.160666 -116.330860 45 23064ft 498kts
20-Mar-17 20:43 35.253474 -116.214144 45 23007ft 471kts
20-Mar-17 20:44 35.349010 -116.093672 45 20940ft 519kts
20-Mar-17 20:45 35.446516 -115.971083 46 18538ft 483kts
20-Mar-17 20:46 35.536588 -115.857283 46 16187ft 449kts
20-Mar-17 20:47 35.620436 -115.750363 46 14033ft 421kts
20-Mar-17 20:48 35.697797 -115.651616 46 13070ft 369kts
20-Mar-17 20:49 35.772500 -115.582013 10 12996ft 332kts
20-Mar-17 20:50 35.864412 -115.574986 356 12981ft 331kts
20-Mar-17 20:51 35.955661 -115.563361 19 12232ft 336kts
20-Mar-17 20:52 36.010154 -115.481081 79 10721ft 319kts
20-Mar-17 20:53 36.028144 -115.374873 82 9037ft 314kts
20-Mar-17 20:54 36.054962 -115.279384 40 7504ft 285kts
20-Mar-17 20:55 36.120548 -115.241849 24 7063ft 233kts
20-Mar-17 20:56 36.161004 -115.194755 77 5422ft 189kts
20-Mar-17 20:57 36.148770 -115.143628 153 3762ft 162kts
20-Mar-17 20:58 36.107269 -115.151875 204 2378ft 151kts
20-Mar-17 20:59 36.082442 -115.166139 207 2128ft 18kts
20-Mar-17 21:00 36.082572 -115.168055 302 2128ft 5kts
20-Mar-17 21:01 36.085743 -115.167382 290 2128ft 15kts
20-Mar-17 21:02 36.086873 -115.169704 82 2128ft 0kts

Navigation Log

Ident Type
Flight plan parsing failed, navigation log unavailable